createdAt,value
2024-02-02T00:02:47.536Z,98.05
2024-02-02T00:06:50.984Z,97.87
2024-02-02T00:10:56.184Z,97.36
2024-02-02T00:14:59.531Z,97.94
2024-02-02T00:19:02.666Z,97.68
2024-02-02T00:23:05.858Z,97.88
2024-02-02T00:27:08.989Z,97.90
2024-02-02T00:31:12.051Z,98.55
2024-02-02T00:35:15.360Z,98.39
2024-02-02T00:39:18.590Z,97.78
2024-02-02T00:43:21.886Z,97.76
2024-02-02T00:47:24.888Z,97.99
2024-02-02T00:51:29.177Z,98.32
2024-02-02T00:55:32.256Z,98.20
2024-02-02T00:59:35.322Z,98.55
2024-02-02T01:03:39.073Z,98.24
2024-02-02T01:07:42.702Z,98.24
2024-02-02T01:11:45.780Z,98.05
2024-02-02T01:15:48.888Z,98.61
2024-02-02T01:19:51.926Z,98.80
2024-02-02T01:23:54.933Z,99.45
2024-02-02T01:27:58.368Z,99.57
2024-02-02T01:32:01.473Z,99.93
2024-02-02T01:36:04.714Z,100.00
2024-02-02T01:40:08.647Z,100.00
2024-02-02T01:44:11.704Z,100.00
2024-02-02T01:48:14.994Z,100.00
2024-02-02T01:52:18.298Z,100.00
2024-02-02T01:56:21.600Z,100.00
2024-02-02T02:00:24.779Z,100.00
2024-02-02T02:04:28.117Z,100.00
2024-02-02T02:08:31.259Z,100.00
2024-02-02T02:12:35.200Z,100.00
2024-02-02T02:16:38.340Z,100.00
2024-02-02T02:20:42.107Z,100.00
2024-02-02T02:24:45.205Z,100.00
2024-02-02T02:28:49.133Z,100.00
2024-02-02T02:32:52.264Z,100.00
2024-02-02T02:36:55.954Z,100.00
2024-02-02T02:40:59.154Z,100.00
2024-02-02T02:45:02.382Z,100.00
2024-02-02T02:49:05.789Z,100.00
2024-02-02T02:53:08.921Z,100.00
2024-02-02T02:57:12.042Z,100.00
2024-02-02T03:01:15.795Z,100.00
2024-02-02T03:05:18.948Z,100.00
2024-02-02T03:09:22.129Z,100.00
2024-02-02T03:13:25.324Z,100.00
2024-02-02T03:17:28.607Z,100.00
2024-02-02T03:21:31.721Z,100.00
2024-02-02T03:25:35.182Z,100.00
2024-02-02T03:29:38.836Z,100.00
2024-02-02T03:33:41.925Z,100.00
2024-02-02T03:37:45.045Z,100.00
2024-02-02T03:41:48.245Z,100.00
2024-02-02T03:45:51.317Z,100.00
2024-02-02T03:49:54.330Z,100.00
2024-02-02T03:53:57.556Z,100.00
2024-02-02T03:58:00.644Z,100.00
2024-02-02T04:02:03.969Z,100.00
2024-02-02T04:06:07.360Z,100.00
2024-02-02T04:10:10.805Z,100.00
2024-02-02T04:14:13.762Z,100.00
2024-02-02T04:18:17.244Z,100.00
2024-02-02T04:22:20.460Z,100.00
2024-02-02T04:26:23.659Z,100.00
2024-02-02T04:30:26.888Z,100.00
2024-02-02T04:34:30.293Z,100.00
2024-02-02T04:38:33.545Z,100.00
2024-02-02T04:42:36.866Z,100.00
2024-02-02T04:46:39.898Z,100.00
2024-02-02T04:50:42.966Z,100.00
2024-02-02T04:54:46.069Z,100.00
2024-02-02T04:58:53.235Z,100.00
2024-02-02T05:02:56.370Z,100.00
2024-02-02T05:06:59.663Z,100.00
2024-02-02T05:11:03.540Z,100.00
2024-02-02T05:15:07.836Z,100.00
2024-02-02T05:19:11.090Z,100.00
2024-02-02T05:23:14.472Z,100.00
2024-02-02T05:27:17.877Z,100.00
2024-02-02T05:31:21.157Z,100.00
2024-02-02T05:35:24.214Z,100.00
2024-02-02T05:39:27.399Z,100.00
2024-02-02T05:43:31.223Z,100.00
2024-02-02T05:47:34.357Z,100.00
2024-02-02T05:51:37.643Z,100.00
2024-02-02T05:55:41.279Z,100.00
2024-02-02T05:59:45.003Z,100.00
2024-02-02T06:03:48.190Z,100.00
2024-02-02T06:07:51.246Z,100.00
2024-02-02T06:11:54.605Z,100.00
2024-02-02T06:15:58.176Z,100.00
2024-02-02T06:20:01.741Z,100.00
2024-02-02T06:24:07.821Z,100.00
2024-02-02T06:28:11.317Z,100.00
2024-02-02T06:32:14.738Z,100.00
2024-02-02T06:36:17.965Z,100.00
2024-02-02T06:40:21.332Z,100.00
2024-02-02T06:44:24.759Z,100.00
2024-02-02T06:48:28.391Z,100.00
2024-02-02T06:52:32.013Z,100.00
2024-02-02T06:56:40.776Z,100.00
2024-02-02T07:00:44.432Z,100.00
2024-02-02T07:04:49.368Z,100.00
2024-02-02T07:08:54.081Z,100.00
2024-02-02T07:13:02.604Z,100.00
2024-02-02T07:17:19.077Z,100.00
2024-02-02T07:21:30.665Z,100.00
2024-02-02T07:25:38.738Z,100.00
2024-02-02T07:29:42.335Z,100.00
2024-02-02T07:33:49.312Z,100.00
2024-02-02T07:37:52.750Z,100.00
2024-02-02T07:41:55.847Z,100.00
2024-02-02T07:45:59.222Z,100.00
2024-02-02T07:50:04.576Z,100.00
2024-02-02T07:54:07.761Z,100.00
2024-02-02T07:58:10.840Z,100.00
2024-02-02T08:02:13.983Z,100.00
2024-02-02T08:06:17.520Z,100.00
2024-02-02T08:10:20.761Z,100.00
2024-02-02T08:14:24.265Z,100.00
2024-02-02T08:18:30.159Z,99.99
2024-02-02T08:22:33.554Z,100.00
2024-02-02T08:26:36.629Z,99.56
2024-02-02T08:30:39.771Z,99.44
2024-02-02T08:34:43.079Z,98.89
2024-02-02T08:38:46.185Z,97.51
2024-02-02T08:42:49.682Z,97.79
2024-02-02T08:46:52.959Z,97.73
2024-02-02T08:50:59.076Z,96.51
2024-02-02T08:55:05.912Z,96.34
2024-02-02T08:59:43.328Z,96.61
2024-02-02T09:03:48.776Z,95.54
2024-02-02T09:08:09.652Z,94.40
2024-02-02T09:12:12.895Z,94.26
2024-02-02T09:16:20.480Z,93.90
2024-02-02T09:20:50.725Z,93.89
2024-02-02T09:24:55.097Z,94.45
2024-02-02T09:29:01.449Z,92.20
2024-02-02T09:33:04.696Z,90.05
2024-02-02T09:37:21.806Z,90.57
2024-02-02T09:41:34.073Z,89.59
2024-02-02T09:46:04.475Z,88.62
2024-02-02T09:50:27.322Z,86.02
2024-02-02T09:54:53.351Z,86.03
2024-02-02T09:59:05.709Z,86.43
2024-02-02T10:03:18.042Z,86.18
2024-02-02T10:07:30.511Z,85.88
2024-02-02T10:11:50.867Z,87.64
2024-02-02T10:16:06.333Z,86.69
2024-02-02T10:20:15.690Z,87.49
2024-02-02T10:24:27.937Z,86.65
2024-02-02T10:28:39.414Z,87.53
2024-02-02T10:32:48.743Z,87.24
2024-02-02T10:37:13.545Z,86.80
2024-02-02T10:41:52.553Z,87.39
2024-02-02T10:46:27.392Z,86.62
2024-02-02T10:50:55.143Z,86.35
2024-02-02T10:55:01.217Z,86.58
2024-02-02T10:59:19.507Z,85.94
2024-02-02T11:03:50.528Z,85.75
2024-02-02T11:07:59.675Z,85.08
2024-02-02T11:12:27.336Z,86.65
2024-02-02T11:16:49.677Z,86.13
2024-02-02T11:21:25.050Z,85.69
2024-02-02T11:25:41.784Z,86.81
2024-02-02T11:30:02.858Z,86.44
2024-02-02T11:34:36.226Z,86.48
2024-02-02T11:39:10.592Z,85.91
2024-02-02T11:43:16.615Z,85.10
2024-02-02T11:47:20.952Z,85.71
2024-02-02T11:51:25.795Z,85.12
2024-02-02T11:55:36.867Z,85.33
2024-02-02T11:59:44.796Z,86.35
2024-02-02T12:04:06.672Z,86.93
2024-02-02T12:08:20.065Z,87.96
2024-02-02T12:12:31.789Z,87.35
2024-02-02T12:16:34.903Z,87.20
2024-02-02T12:20:40.715Z,87.72
2024-02-02T12:24:44.197Z,87.02
2024-02-02T12:28:47.426Z,87.79
2024-02-02T12:32:58.641Z,89.09
2024-02-02T12:37:03.052Z,90.03
2024-02-02T12:41:06.426Z,91.40
2024-02-02T12:45:16.611Z,91.89
2024-02-02T12:49:26.286Z,91.77
2024-02-02T12:53:30.168Z,92.15
2024-02-02T12:57:35.182Z,93.46
2024-02-02T13:01:38.563Z,93.20
2024-02-02T13:05:43.683Z,93.64
2024-02-02T13:09:52.594Z,93.05
2024-02-02T13:14:05.442Z,93.28
2024-02-02T13:18:18.503Z,93.71
2024-02-02T13:22:28.009Z,94.11
2024-02-02T13:26:38.271Z,93.72
2024-02-02T13:30:42.180Z,93.92
2024-02-02T13:34:45.464Z,93.36
2024-02-02T13:38:49.170Z,92.93
2024-02-02T13:42:52.698Z,92.62
2024-02-02T13:46:57.530Z,92.69
2024-02-02T13:51:01.502Z,91.31
2024-02-02T13:55:07.922Z,91.62
2024-02-02T13:59:21.460Z,92.36
2024-02-02T14:03:24.642Z,92.24
2024-02-02T14:07:28.091Z,93.07
2024-02-02T14:11:32.360Z,92.29
2024-02-02T14:15:39.580Z,92.75
2024-02-02T14:19:42.841Z,91.82
2024-02-02T14:23:46.166Z,91.86
2024-02-02T14:27:49.198Z,91.18
2024-02-02T14:31:55.629Z,90.77
2024-02-02T14:35:58.943Z,90.72
2024-02-02T14:40:04.705Z,90.63
2024-02-02T14:44:08.018Z,91.18
2024-02-02T14:48:12.329Z,90.57
2024-02-02T14:52:15.640Z,91.10
2024-02-02T14:56:19.100Z,90.69
2024-02-02T15:00:31.097Z,89.42
2024-02-02T15:04:34.354Z,88.65
2024-02-02T15:08:37.507Z,89.40
2024-02-02T15:12:43.376Z,86.97
2024-02-02T15:16:46.871Z,86.59
2024-02-02T15:20:50.375Z,86.25
2024-02-02T15:24:53.565Z,86.63
2024-02-02T15:28:56.694Z,84.96
2024-02-02T15:32:59.926Z,83.60
2024-02-02T15:37:03.511Z,82.79
2024-02-02T15:41:15.090Z,81.28
2024-02-02T15:45:18.588Z,80.22
2024-02-02T15:49:21.779Z,79.65
2024-02-02T15:53:25.703Z,79.92
2024-02-02T15:57:28.907Z,78.84
2024-02-02T16:01:32.074Z,79.55
2024-02-02T16:05:36.444Z,79.34
2024-02-02T16:09:41.626Z,80.05
2024-02-02T16:13:45.219Z,80.65
2024-02-02T16:17:48.400Z,80.84
2024-02-02T16:21:52.423Z,80.36
2024-02-02T16:25:55.528Z,79.78
2024-02-02T16:29:58.812Z,80.85
2024-02-02T16:34:04.184Z,81.17
2024-02-02T16:38:07.478Z,81.37
2024-02-02T16:42:11.229Z,81.81
2024-02-02T16:46:14.498Z,82.03
2024-02-02T16:50:17.689Z,82.07
2024-02-02T16:54:21.239Z,82.26
2024-02-02T16:58:24.905Z,82.03
2024-02-02T17:02:28.147Z,82.10
2024-02-02T17:06:31.658Z,82.21
2024-02-02T17:10:35.238Z,82.45
2024-02-02T17:14:39.730Z,82.68
2024-02-02T17:18:43.265Z,82.74
2024-02-02T17:22:46.722Z,82.12
2024-02-02T17:26:50.422Z,82.56
2024-02-02T17:30:54.322Z,82.20
2024-02-02T17:34:57.895Z,82.69
2024-02-02T17:39:01.227Z,83.10
2024-02-02T17:43:08.680Z,83.31
2024-02-02T17:47:12.522Z,83.88
2024-02-02T17:51:23.092Z,84.11
2024-02-02T17:55:26.561Z,85.06
2024-02-02T17:59:29.910Z,84.95
2024-02-02T18:03:33.662Z,84.39
2024-02-02T18:07:44.687Z,84.90
2024-02-02T18:11:51.228Z,84.18
2024-02-02T18:15:54.621Z,84.49
2024-02-02T18:19:58.024Z,84.43
2024-02-02T18:24:01.606Z,84.36
2024-02-02T18:28:04.989Z,84.86
2024-02-02T18:32:09.146Z,84.54
2024-02-02T18:36:12.460Z,84.52
2024-02-02T18:40:16.780Z,84.80
2024-02-02T18:44:20.055Z,84.42
2024-02-02T18:48:25.381Z,85.18
2024-02-02T18:52:30.640Z,85.10
2024-02-02T18:56:34.105Z,84.72
2024-02-02T19:00:37.552Z,84.84
2024-02-02T19:04:41.798Z,85.84
2024-02-02T19:08:45.721Z,86.75
2024-02-02T19:12:49.052Z,87.63
2024-02-02T19:16:52.474Z,87.65
2024-02-02T19:20:55.815Z,87.50
2024-02-02T19:25:00.015Z,87.77
2024-02-02T19:29:04.196Z,87.67
2024-02-02T19:33:07.906Z,86.96
2024-02-02T19:37:11.655Z,86.88
2024-02-02T19:41:20.179Z,86.93
2024-02-02T19:45:23.470Z,86.73
2024-02-02T19:49:27.439Z,85.96
2024-02-02T19:53:30.798Z,85.47
2024-02-02T19:57:34.115Z,84.97
2024-02-02T20:01:38.872Z,85.20
2024-02-02T20:05:42.285Z,85.01
2024-02-02T20:09:54.023Z,85.07
2024-02-02T20:13:57.190Z,85.29
2024-02-02T20:18:00.668Z,85.46
2024-02-02T20:22:04.038Z,85.56
2024-02-02T20:26:07.519Z,86.16
2024-02-02T20:30:12.477Z,86.05
2024-02-02T20:34:16.005Z,86.04
2024-02-02T20:38:19.390Z,86.30
2024-02-02T20:42:22.653Z,86.36
2024-02-02T20:46:25.917Z,86.17
2024-02-02T20:50:29.121Z,86.71
2024-02-02T20:54:32.243Z,87.66
2024-02-02T20:58:35.399Z,88.76
2024-02-02T21:02:43.257Z,88.34
2024-02-02T21:06:46.591Z,89.54
2024-02-02T21:10:49.824Z,89.83
2024-02-02T21:14:53.553Z,89.90
2024-02-02T21:18:57.894Z,90.26
2024-02-02T21:23:01.642Z,90.63
2024-02-02T21:27:04.996Z,91.72
2024-02-02T21:31:08.372Z,92.80
2024-02-02T21:35:11.650Z,93.19
2024-02-02T21:39:15.066Z,94.28
2024-02-02T21:43:18.071Z,94.78
2024-02-02T21:47:21.522Z,94.79
2024-02-02T21:51:24.686Z,94.64
2024-02-02T21:55:27.887Z,95.70
2024-02-02T21:59:30.942Z,95.71
2024-02-02T22:03:34.012Z,96.32
2024-02-02T22:07:39.220Z,96.64
2024-02-02T22:11:42.480Z,97.60
2024-02-02T22:15:45.621Z,97.48
2024-02-02T22:19:48.725Z,97.11
2024-02-02T22:23:52.232Z,97.18
2024-02-02T22:27:55.326Z,98.59
2024-02-02T22:31:58.585Z,99.18
2024-02-02T22:36:01.591Z,99.85
2024-02-02T22:40:05.576Z,99.96
2024-02-02T22:44:08.599Z,100.00
2024-02-02T22:48:11.998Z,100.00
2024-02-02T22:52:15.173Z,100.00
2024-02-02T22:56:18.401Z,100.00
2024-02-02T23:00:22.743Z,100.00
2024-02-02T23:04:26.028Z,100.00
2024-02-02T23:08:30.571Z,99.97
2024-02-02T23:12:33.825Z,100.00
2024-02-02T23:16:36.935Z,99.97
2024-02-02T23:20:40.150Z,100.00
2024-02-02T23:24:43.353Z,100.00
2024-02-02T23:28:46.339Z,100.00
2024-02-02T23:32:49.433Z,99.99
2024-02-02T23:36:52.559Z,100.00
2024-02-02T23:40:57.020Z,100.00
2024-02-02T23:45:00.182Z,100.00
2024-02-02T23:49:03.720Z,99.98
2024-02-02T23:53:06.863Z,99.62
2024-02-02T23:57:09.959Z,99.46
